キングストン の空港の天気 - METARとTAF

ノーマン・マンレー国際空港 ( MKJP / KIN ) - ジャマイカ キングストン
飛行場実況気象(Metar)
観測時間10/23 21:00 EST (10/24 02:00 UTC)
風向・風速東 5m/s
視程10km以上
天気現象
少しの雲 雲底高度 670m
全天の4割程度の雲 雲底高度 1160m
気温29℃
湿度70%
気圧1014hPa
METARMKJP 240200Z 09010KT 9999 FEW022 SCT038 29/23 Q1014
過去の天気等 Google飛行場航空写真 Wunderground天気予報

過去48時間のMETAR

飛行場予報(TAF)
発表時間: 10/23 18:15 EST (10/23 23:15 UTC)
予報対象時間: 23日19時 EST ~ 24日19時 EST
風向・風速東南東 7m/s
視程10km以上
少しの雲 雲底高度 670m
24日10時 EST ~ 24日12時 EST に徐々に
風向・風速南東 10m/s
TAF MKJP 232315Z 2400/2424 12013KT 9999 FEW022
BECMG 2415/2417 14020KT